Chaleur - Miscou: Past 24 Hour Conditions

 

Pool's Island

04:30 PM NDT 29 July 2014
This table is a summary of hourly weather conditions for the past 24 hours.
Date / Time
(NDT)
Wind(knots) Conditions Visibility(km) Pressure(kPa) Air tempC) Relative humidity(%) Dew pointC)
29 July 2014
16:30 SSE 14 N/A N/A 101.7 17 90 16
15:30 SSE 15 N/A N/A 101.8 17 90 16
14:30 SSE 15 N/A N/A 101.8 17 91 16
13:30 SSE 13 gust 19 N/A N/A 101.8 17 92 15
12:30 SSE 18 N/A N/A 101.8 17 90 15
11:30 SSE 16 N/A N/A 101.8 16 93 15
10:30 SSE 17 N/A N/A 101.8 17 90 16
9:30 SSE 14 N/A N/A 101.9 17 92 15
8:30 SSE 13 N/A N/A 101.9 17 91 15
7:30 S 12 N/A N/A 101.9 16 93 15
6:30 SSE 12 N/A N/A 101.8 17 91 15
5:30 SSE 11 N/A N/A 101.9 17 90 15
4:30 SSE 10 N/A N/A 101.8 17 91 16
3:30 S 7 N/A N/A 101.9 17 90 15
2:30 S 11 N/A N/A 101.9 17 89 15
1:30 S 5 N/A N/A 101.9 17 90 16
0:30 SSW 7 N/A N/A 101.9 18 88 16
28 July 2014
23:30 S 8 N/A N/A 101.9 18 84 15
22:30 S 6 N/A N/A 101.9 18 81 15
21:30 S 11 N/A N/A 101.9 18 83 15
20:30 S 16 N/A N/A 101.8 19 80 15
19:30 SSE 19 N/A N/A 101.8 19 77 15
18:30 SSE 10 gust 16 N/A N/A 101.8 20 78 16
17:30 SSE 8 N/A N/A 101.9 20 79 16
16:30 SSE 14 N/A N/A 101.9 20 73 15
 
Map of Atlantic - Newfoundland marine weather areas Southwestern Grand Banks - 44138 Banquereau - 44139 Tail of the Bank - 44140 Nickerson Bank - 44251 Northeast Burgeo Bank - 44255 Blanc-Sablon Airport Cap Whittle Chevery Natashquan Airport Heath Point Miscou Island Grand Étang Ingonish Beach North Mountain St.Paul Island J.A. Douglas McCurdy Sydney Airport Charlottetown Airport East Point North Cape Argentia Bonavista Burgeo Cape Race Corner Brook Daniel's Harbour Englee Ferolle Point La Scie Port aux Basques Rocky Harbour Sagona Island St. Anthony Airport St. John's Int'l Airport St. Lawrence Stephenville Airport Twillingate Winterland Wreckhouse Cartwright Airport Mary's Harbour Grates Cove Pool's Island Marticot Island Long Pond Îles de la Madeleine Airport
Legend: buoyBuoy land stationLand Station